Terminal Aerodrome Forecast
Issued by NWS Pocatello, ID

Home | Current Version | Previous Version | Text Only | Print | Product List | Glossary On
Versions: 1 2 3 4 5 6 7 8 9 10 11 12 13 14 15 16 17 18 19 20 21 22 23 24 25 26 27 28
000
FTUS45 KPIH 280600 AAB
TAFIDA
TAF AMD
KIDA 280657Z 2807/2906 19015G23KT 2SM -SN BR SCT009 OVC015
      TEMPO 2807/2810 1SM -SN BR OVC015
     FM281000 21015KT 1SM -SN OVC007
     FM282100 22011KT 3SM -SN SCT008 BKN020
     FM290100 21008KT 5SM BR OVC010=

USA.gov is the U.S. government's official web portal to all federal, state and local government web resources and services.